Time;durP1;ratioP1;P1;durP2;ratioP2;P2;SDS_P1;SDS_P2;PMS_P1;PMS_P2;Temp;Humidity;BMP_temperature;BMP_pressure;BME280_temperature;BME280_humidity;BME280_pressure;Samples;Min_cycle;Max_cycle;Signal;HPM_P1;HPM_P2
2022/01/27 00:01:34;;;;;;;31.97;13.43;;;;;;;;;;6156734;23;20220;-91
2022/01/27 00:04:51;;;;;;;38.70;15.17;;;;;;;;;;6156459;23;20209;-90
2022/01/27 00:08:10;;;;;;;35.27;13.90;;;;;;;;;;6155452;23;20196;-91
2022/01/27 00:11:16;;;;;;;35.13;12.53;;;;;;;;;;6155172;23;20168;-89
2022/01/27 00:14:22;;;;;;;33.63;12.90;;;;;;;;;;6155375;23;20156;-90
2022/01/27 00:17:31;;;;;;;34.67;13.00;;;;;;;;;;6138611;23;20177;-92
2022/01/27 00:20:38;;;;;;;32.87;13.03;;;;;;;;;;6156791;23;20188;-89
2022/01/27 00:23:45;;;;;;;37.00;14.77;;;;;;;;;;6173018;23;20261;-91
2022/01/27 00:26:50;;;;;;;34.63;14.20;;;;;;;;;;6153475;23;20199;-91
2022/01/27 00:29:55;;;;;;;36.13;14.60;;;;;;;;;;6154303;23;20204;-90
2022/01/27 00:33:01;;;;;;;33.17;13.23;;;;;;;;;;6170392;23;20169;-91
2022/01/27 00:36:08;;;;;;;37.73;14.00;;;;;;;;;;6156519;23;20206;-89
2022/01/27 00:39:13;;;;;;;38.03;14.40;;;;;;;;;;6173673;23;20171;-91
2022/01/27 00:42:18;;;;;;;39.37;15.33;;;;;;;;;;6156334;23;20151;-89
2022/01/27 00:45:24;;;;;;;34.03;14.07;;;;;;;;;;6154484;23;20254;-90
2022/01/27 00:48:30;;;;;;;30.90;13.87;;;;;;;;;;6155382;23;20201;-89
2022/01/27 00:51:44;;;;;;;31.27;13.20;;;;;;;;;;6155084;23;20260;-89
2022/01/27 00:54:51;;;;;;;32.47;13.07;;;;;;;;;;6154858;23;20176;-93
2022/01/27 00:58:09;;;;;;;33.37;14.07;;;;;;;;;;6174030;23;20197;-89
2022/01/27 01:01:20;;;;;;;38.10;15.37;;;;;;;;;;6155812;23;20225;-92
2022/01/27 01:04:30;;;;;;;36.00;14.17;;;;;;;;;;6158413;23;20172;-90
2022/01/27 01:07:39;;;;;;;35.60;14.10;;;;;;;;;;6175083;23;20196;-89
2022/01/27 01:17:33;;;;;;;33.13;14.20;;;;;;;;;;6158351;23;20176;-91
2022/01/27 01:30:51;;;;;;;29.90;13.30;;;;;;;;;;6158923;23;20218;-92
2022/01/27 01:48:37;;;;;;;28.87;12.73;;;;;;;;;;6176471;23;20212;-88
2022/01/27 01:51:43;;;;;;;31.97;13.17;;;;;;;;;;6183080;23;20291;-88
2022/01/27 01:54:49;;;;;;;31.30;13.53;;;;;;;;;;6186153;23;20200;-90
2022/01/27 01:57:57;;;;;;;31.77;13.10;;;;;;;;;;6186729;23;20171;-89
2022/01/27 02:01:02;;;;;;;29.13;12.30;;;;;;;;;;6185684;23;20643;-90
2022/01/27 02:04:10;;;;;;;32.87;13.20;;;;;;;;;;6185456;23;20159;-89
2022/01/27 02:07:26;;;;;;;33.90;13.13;;;;;;;;;;6186230;23;20199;-87
2022/01/27 02:17:48;;;;;;;33.43;13.30;;;;;;;;;;6185347;23;20196;-89
2022/01/27 02:20:47;;;;;;;32.67;12.90;;;;;;;;;;6185381;23;20171;-92
2022/01/27 02:23:52;;;;;;;29.10;12.70;;;;;;;;;;6182498;23;20502;-87
2022/01/27 02:26:58;;;;;;;29.03;12.80;;;;;;;;;;6183573;23;20203;-89
2022/01/27 02:30:04;;;;;;;25.83;11.53;;;;;;;;;;6183230;23;20219;-89
2022/01/27 02:33:09;;;;;;;28.17;11.50;;;;;;;;;;6184355;23;20159;-89
2022/01/27 02:36:20;;;;;;;26.67;11.90;;;;;;;;;;6183120;23;20171;-90
2022/01/27 02:39:25;;;;;;;27.93;11.53;;;;;;;;;;6183834;23;20299;-90
2022/01/27 02:42:32;;;;;;;28.53;12.23;;;;;;;;;;6183847;23;20229;-90
2022/01/27 02:45:38;;;;;;;29.73;12.23;;;;;;;;;;6183566;23;20176;-90
2022/01/27 02:48:43;;;;;;;25.63;11.77;;;;;;;;;;6184646;23;20267;-91
2022/01/27 02:51:49;;;;;;;29.47;12.40;;;;;;;;;;6183820;23;20164;-92
2022/01/27 02:54:54;;;;;;;28.60;12.43;;;;;;;;;;6183347;23;20155;-92
2022/01/27 02:57:59;;;;;;;27.87;11.23;;;;;;;;;;6187806;23;20181;-90
2022/01/27 03:01:10;;;;;;;26.87;11.93;;;;;;;;;;6183967;23;20156;-91
2022/01/27 03:04:15;;;;;;;30.73;12.00;;;;;;;;;;6185532;23;20167;-91
2022/01/27 03:07:22;;;;;;;30.83;12.53;;;;;;;;;;6184919;23;20210;-86
2022/01/27 03:10:30;;;;;;;29.77;12.30;;;;;;;;;;6183621;23;20172;-90
2022/01/27 03:13:35;;;;;;;26.50;11.60;;;;;;;;;;6185600;23;20172;-90
2022/01/27 03:16:41;;;;;;;29.40;11.73;;;;;;;;;;6184768;23;20151;-89
2022/01/27 03:19:46;;;;;;;29.00;11.77;;;;;;;;;;6184678;23;20195;-91
2022/01/27 03:22:52;;;;;;;30.40;12.63;;;;;;;;;;6184194;23;20176;-91
2022/01/27 03:25:57;;;;;;;28.60;12.10;;;;;;;;;;6181709;23;20164;-93
2022/01/27 03:29:02;;;;;;;29.17;12.77;;;;;;;;;;6187146;23;20195;-88
2022/01/27 03:32:08;;;;;;;31.83;12.80;;;;;;;;;;6184253;23;20168;-90
2022/01/27 03:35:13;;;;;;;34.20;13.27;;;;;;;;;;6182373;23;20221;-86
2022/01/27 03:38:20;;;;;;;33.50;13.33;;;;;;;;;;6184393;23;20168;-88
2022/01/27 03:41:31;;;;;;;29.77;13.20;;;;;;;;;;6182453;23;20176;-89
2022/01/27 03:44:36;;;;;;;30.83;13.53;;;;;;;;;;6186387;23;20167;-90
2022/01/27 03:47:42;;;;;;;29.27;12.80;;;;;;;;;;6183585;23;20263;-89
2022/01/27 03:50:47;;;;;;;32.47;13.63;;;;;;;;;;6183732;23;20196;-90
2022/01/27 03:53:54;;;;;;;32.43;13.93;;;;;;;;;;6183814;23;20155;-90
2022/01/27 03:56:59;;;;;;;34.07;13.67;;;;;;;;;;6180596;23;20164;-92
2022/01/27 04:00:05;;;;;;;34.03;13.20;;;;;;;;;;6185491;23;20164;-92
2022/01/27 04:03:19;;;;;;;35.80;13.80;;;;;;;;;;6201682;23;20168;-90
2022/01/27 04:06:32;;;;;;;30.97;13.17;;;;;;;;;;6184064;23;20195;-90
2022/01/27 04:09:39;;;;;;;43.10;15.13;;;;;;;;;;6184014;23;20176;-91
2022/01/27 04:12:44;;;;;;;32.37;13.50;;;;;;;;;;6183933;23;20168;-88
2022/01/27 04:15:49;;;;;;;36.60;14.20;;;;;;;;;;6185294;23;20187;-92
2022/01/27 04:18:55;;;;;;;36.50;14.23;;;;;;;;;;6184574;23;20175;-89
2022/01/27 04:22:00;;;;;;;33.90;14.10;;;;;;;;;;6185801;23;20208;-88
2022/01/27 04:25:08;;;;;;;34.67;13.80;;;;;;;;;;6184831;23;20164;-89
2022/01/27 04:28:17;;;;;;;35.53;13.87;;;;;;;;;;6183161;23;20655;-90
2022/01/27 04:31:24;;;;;;;31.17;13.33;;;;;;;;;;6185711;23;20196;-92
2022/01/27 04:35:10;;;;;;;34.03;14.43;;;;;;;;;;6186518;23;20235;-89
2022/01/27 04:38:27;;;;;;;32.93;13.77;;;;;;;;;;6183865;23;20180;-90
2022/01/27 04:41:39;;;;;;;34.50;14.40;;;;;;;;;;6185849;23;20224;-90
2022/01/27 04:44:51;;;;;;;31.53;13.30;;;;;;;;;;6184771;23;20163;-89
2022/01/27 04:48:06;;;;;;;32.57;14.43;;;;;;;;;;6182960;23;20263;-91
2022/01/27 04:51:16;;;;;;;39.37;14.90;;;;;;;;;;6184599;23;20175;-89
2022/01/27 04:54:26;;;;;;;31.57;13.60;;;;;;;;;;6182709;23;20192;-88
2022/01/27 04:57:33;;;;;;;35.10;14.10;;;;;;;;;;6185552;23;20160;-91
2022/01/27 05:00:40;;;;;;;36.70;14.43;;;;;;;;;;6184847;23;20171;-88
2022/01/27 05:03:49;;;;;;;34.50;14.40;;;;;;;;;;6183713;23;20172;-90
2022/01/27 05:06:55;;;;;;;32.50;13.53;;;;;;;;;;6183469;23;20152;-91
2022/01/27 05:10:09;;;;;;;34.50;13.63;;;;;;;;;;6182531;23;20167;-90
2022/01/27 05:13:18;;;;;;;34.40;13.67;;;;;;;;;;6183921;23;20200;-91
2022/01/27 05:16:23;;;;;;;34.17;14.17;;;;;;;;;;6182194;23;20236;-87
2022/01/27 05:19:28;;;;;;;36.33;15.43;;;;;;;;;;6184547;23;20155;-91
2022/01/27 05:22:35;;;;;;;37.30;15.40;;;;;;;;;;6183845;23;20168;-91
2022/01/27 05:25:40;;;;;;;33.70;14.50;;;;;;;;;;6182297;23;20168;-89
2022/01/27 05:32:11;;;;;;;35.77;13.30;;;;;;;;;;6186811;23;20228;-91
